METAR Data
IDs: Format: Raw Decoded Include TAF

Data at: 1457 UTC 27 Nov 2021

KIGQ 271435Z AUTO 18007KT 10SM SCT100 BKN120 00/M05 A2990 RMK AO2 T00011047